Racecast

Jason Frentheway

Cheyenne Central (CO) · 12 · EASTWY D4A4A · Compare head to head

Athlete rating 125.5 2022 TF season
Best race 132.6 XC
Races 77
Seasons 5 2018 — 2022

RankedNation #5155·UT #157·Team #9 ?

Speed rating — all races

Cross Country

XC speed rating

2021 XC 130.2

Cheyenne Central (CO) · Grade 12

Date Meet Event Result Place Rating Difficulty PR/SR Flags
2021-11-13 Eagle Island State Park 5000m 16:23.7 43rd · 2nd on team 131.2 +0.029 ★CR CSR
2021-10-23 Wyoming Indian High School 5000m 16:53.7 8th · 3rd on team 128.8 +0.046 ★CR CSR
2021-10-15 Campbell County High School 5000m 16:55.6 5th · 4th on team 128.2 +0.039 ★CR CSR
2021-10-08 Prairie View Golf Course 5000m 16:30.1 2nd · 2nd on team 129.8 +0.023 ★CR CSR
2021-10-01 Margaret W. Carpenter Recreation Center 5000m 16:18 8th · 2nd on team 130.4 +0.014 ★CR CSR
2021-09-24 Clement Park 5000m 16:23.3 4th · 2nd on team 131.1 +0.030 ★CR CSR
2021-09-17 North Lake Park 5000m 16:24 3rd · 2nd on team 131.6 +0.041 ★CR CSR
2021-09-11 Heritage High School 5000m 16:06.7 26th · 2nd on team 132.6 -0.001 ★PR ★CR ★R SR CSR RSR
2021-09-03 Little America Golf Course 5000m 16:58.6 4th · 2nd on team 129.8 +0.065 ★CR R SR CSR RSR
2021-08-27 Adams County Regional Park 5000m 17:11.9 4th · 2nd on team 128.3 +0.048 ★CR SR CSR RSR

2020 XC 125.6

Cheyenne Central (CO) · Grade 11

Date Meet Event Result Place Rating Difficulty PR/SR Flags
2020-10-24 Paradise Valley Country Club 5000m 16:52.3 13th · 2nd on team 127.8 +0.030 PR ★CR SR CSR
2020-10-16 North Cheyenne Community Park 5000m 18:00.3 8th · 3rd on team 125.2 +0.089 ★CR CSR
2020-09-18 Prairie View Golf Course 5000m 17:35.7 1st · 1st on team 122.4 +0.023
2020-09-11 Prairie View Golf Course 5000m 17:09 4th · 2nd on team 124.0 +0.023 CR SR CSR
2020-09-04 Douglas High School 5000m 17:15.7 1st · 1st on team 128.6 +0.063 ★CR R SR CSR RSR

2019 XC 123.2

Cheyenne Central (CO) · Grade 10

Date Meet Event Result Place Rating Difficulty PR/SR Flags
2019-10-26 Valli-Vue Golf Course 5000m 17:38.1 19th · 4th on team 128.1 +0.092 ★CR R CSR RSR
2019-10-18 Black Tooth Park 5000m 17:02.6 7th · 3rd on team 123.3 +0.016 ★CR R CSR RSR
2019-09-20 Fort Collins High School 5000m 17:18 9th · 3rd on team 123.2 +0.023 ★CR R CSR RSR
2019-09-14 Valli-Vue Golf Course 5000m 18:55.6 32nd · 6th on team 119.1 +0.092 CR CSR
2019-09-07 Heritage High School 5000m 16:56.4 24th · 3rd on team 122.1 -0.001 PR CR R SR CSR RSR

2018 XC 110.7

Unattached (TX) · Grade 9

Date Meet Event Result Place Rating Difficulty PR/SR Flags
2018-11-10 Eagle Island State Park 5000m 18:25.3 65th · 7th on team 115.9 +0.029 PR CR R SR CSR RSR
2018-10-11 CAM-PLEX Park 5000m 19:03.7 4th · 3rd on team 112.7 +0.036 ★CR CSR
2018-10-05 Prairie View Golf Course 5000m 18:55.4 48th · 10th on team 112.2 +0.023 CR CSR
2018-09-28 Margaret W. Carpenter Recreation Center 5000m 18:32 169th · 8th on team 112.8 +0.014 PR CR R SR CSR RSR
2018-09-21 North Lake Park 5000m 19:44 25th · 2nd on team 109.4 +0.041 CR R CSR RSR
2018-09-08 Heritage High School 5000m 19:13.4 29th · 1st on team 107.7 -0.001 PR CR SR CSR
2018-08-31 Adams County Regional Park 5000m 20:19 88th · 10th on team 108.1 +0.048 PR CR R SR CSR RSR
2018-08-24 Casper Mountain Road 5000m 21:19.5 13th · 2nd on team 107.2 +0.104 PR ★CR R SR CSR RSR

Track & Field

TF speed rating

2022 TF 123.2

Cheyenne Central (CO) · Grade 12

Date Meet Event Result Place Rating Difficulty PR/SR Flags
2022-05-14 Wyoming 4A East Regionals 800m 2:10.03 10th · 4th on team 123.2 +0.012
2022-05-07 2022 BYU Invitational 3200m 10:23.69 34th · 2nd on team 118.3 -0.028
2022-04-22 Twilight Invite 800m 2:03.46 1st · 1st on team 125.6 -0.017 ★PR SR
2022-01-22 BYU Indoor Invitational 2miles 9:58.12 6th · 1st on team 126.0 -0.013 ★PR SR RSR
2022-01-22 BYU Indoor Invitational 1mile 4:42.35 11th · 1st on team 123.6 -0.013 ★PR SR
2022-01-15 Natrona Invitational 3200m 10:15.06 2nd · 2nd on team 122.8 -0.003 ★PR SR RSR

2021 TF 120.1

Cheyenne Central (CO) · Grade 11

Date Meet Event Result Place Rating Difficulty PR/SR Flags
2021-05-22 WHSAA 4A State Track and Field Championships 3200m 10:42.31 15th · 3rd on team 117.9 -0.012
2021-05-22 WHSAA 4A State Track and Field Championships 1600m 4:50.07 19th · 4th on team 120.7 -0.012
2021-04-30 Kelly Walsh Invite 800m 2:08.95 5th · 2nd on team 123.4 +0.006
2021-04-28 Cheyenne Traingular 800m 2:06.59 2nd · 2nd on team 126.6 +0.006 PR SR RSR
2021-04-28 Cheyenne Traingular 3200m 10:54.64 2nd · 2nd on team 117.6 +0.006
2021-04-23 Twilight Invitational 2021 3200m 10:26.74 4th · 3rd on team 119.2 -0.017 PR SR
2021-04-09 Okie Blanchard Invite 1600m 5:04.23 3rd · 3rd on team 117.7 +0.006
2021-04-09 Okie Blanchard Invite 800m 2:14.92 2nd · 2nd on team 119.0 +0.006
2021-04-01 Wheatland Invitational 1600m 4:44.98 3rd · 3rd on team 123.4 -0.004 ★PR SR RSR
2021-04-01 Wheatland Invitational 800m 2:10.88 4th · 2nd on team 120.4 -0.004
2021-03-26 Binfield Invitational 2021 800m 2:09.45 4th · 2nd on team 119.7 -0.017 PR SR
2021-03-26 Binfield Invitational 2021 3200m 10:32.02 2nd · 2nd on team 118.7 -0.017
2021-02-19 WHSAA Indoor Meet #3 1600m 4:50.37 2nd · 2nd on team 120.1 -0.023 PR SR RSR
2021-02-05 WHSAA Indoor Meet 3200m 10:28.67 2nd · 2nd on team 119.9 -0.023 PR SR RSR
2021-01-15 WHSAA Indoor Meet #1 800m 2:12.08 3rd · 2nd on team 118.6 -0.023 SR RSR
2021-01-15 WHSAA Indoor Meet #1 1600m 4:53.08 2nd · 2nd on team 118.9 -0.023 PR SR RSR

2020 TF 116.8

Cheyenne Central (CO) · Grade 10

Date Meet Event Result Place Rating Difficulty PR/SR Flags
2020-03-07 Wyoming State Indoor Championships 800m 2:10.17 17th · 3rd on team 120.4 -0.023 PR SR RSR
2020-03-07 Wyoming State Indoor Championships 3200m 10:32.77 12th · 2nd on team 119.0 -0.023 PR SR
2020-02-28 Wyoming Last Chance 1600m 5:05 3rd · 1st on team 118.1 -0.005
2020-02-15 Simplot Games 3200m 10:36.58 64th · 2nd on team 119.9 -0.023 PR SR RSR
2020-02-08 Natrona Indoor Invite #2 800m 2:17.1 13th · 6th on team 115.5 -0.003 PR SR
2020-02-08 Natrona Indoor Invite #2 1600m 4:59.5 13th · 4th on team 118.4 -0.003 PR SR
2020-02-01 Kevin Salverson Memorial 1600m 5:00.47 2nd · 2nd on team 118.9 +0.006 PR SR RSR
2020-02-01 Kevin Salverson Memorial 800m 2:18.65 9th · 7th on team 115.1 +0.006 PR SR
2020-01-17 Natrona Indoor Invitational #1 800m 2:26.52 28th · 6th on team 108.0 -0.003 SR RSR
2020-01-17 Natrona Indoor Invitational #1 1600m 5:08.33 14th · 5th on team 115.0 -0.003 SR RSR

2019 TF 110.3

Cheyenne Central (CO) · Grade 9

Date Meet Event Result Place Rating Difficulty PR/SR Flags
2019-05-11 Wyoming 1A-2A-4A East Regional 3200m 11:43.79 21st · 4th on team 104.7 -0.039
2019-05-03 Wiseman Invite 1600m 5:00.94 3rd · 3rd on team 116.7 -0.007 PR R SR RSR
2019-04-27 Liberty Bell Invitational 3200m 11:01.88 47th · 3rd on team 113.9 -0.015 PR SR
2019-04-18 Cheyenne Central Invitational 1600m 5:09.63 5th · 4th on team 115.6 +0.010 PR SR RSR
2019-04-18 Cheyenne Central Invitational 800m 2:29.15 8th · 7th on team 106.8 +0.010
2019-04-06 David S. D'Evelyn Invitational 1600m 5:14.47 24th · 3rd on team 111.3 -0.011 PR SR
2019-03-30 Altitude Running Invitational 800m 2:20.59 37th · 4th on team 110.9 -0.012
2019-03-22 Runners Roost of Fort Collins Invitational 1600m 5:25.92 34th · 3rd on team 107.9 -0.009
2019-03-01 Wyoming State Indoor Championships 3200m 11:43.5 31st · 4th on team 107.3 -0.023 PR SR
2019-03-01 Wyoming State Indoor Championships 800m 2:24.06 50th · 4th on team 108.4 -0.023
2019-02-22 Wyoming Last Chance Qualifier 3200m 11:50.98 2nd · 1st on team 108.8 -0.005 PR SR
2019-02-09 NC Mustang-Fillies Indoor Invitational 800m 2:18.68 17th · 5th on team 113.0 -0.003 PR SR RSR
2019-02-02 Kevin Salverson Invitational 800m 2:23.36 10th · 8th on team 111.1 +0.010 PR SR RSR
2019-02-02 Kevin Salverson Invitational 1600m 5:21.79 3rd · 3rd on team 111.2 +0.010 RSR
2019-01-24 Wyoming HS Open 1600m 5:26.37 9th · 5th on team 110.3 -0.005
2019-01-19 Gillette Invitational 800m 2:26.39 22nd · 3rd on team 106.7 -0.023 PR SR RSR
2019-01-19 Gillette Invitational 1600m 5:15.3 18th · 3rd on team 111.1 -0.023 PR SR RSR